sensor_id;sensor_type;location;lat;lon;timestamp;temperature;humidity
2453;DHT22;1238;47.994;7.854;2022-08-04T00:01:03;23.70;89.40
2453;DHT22;1238;47.994;7.854;2022-08-04T00:03:44;23.50;89.80
2453;DHT22;1238;47.994;7.854;2022-08-04T00:06:33;24.20;90.00
2453;DHT22;1238;47.994;7.854;2022-08-04T00:09:29;23.00;90.00
2453;DHT22;1238;47.994;7.854;2022-08-04T00:12:02;23.30;90.50
2453;DHT22;1238;47.994;7.854;2022-08-04T00:14:47;23.30;90.50
2453;DHT22;1238;47.994;7.854;2022-08-04T00:17:24;23.20;90.80
2453;DHT22;1238;47.994;7.854;2022-08-04T00:20:02;23.20;90.90
2453;DHT22;1238;47.994;7.854;2022-08-04T00:22:39;23.20;91.10
2453;DHT22;1238;47.994;7.854;2022-08-04T00:25:13;23.20;90.80
2453;DHT22;1238;47.994;7.854;2022-08-04T00:27:45;23.30;90.70
2453;DHT22;1238;47.994;7.854;2022-08-04T00:30:18;23.30;90.70
2453;DHT22;1238;47.994;7.854;2022-08-04T00:32:51;23.30;90.60
2453;DHT22;1238;47.994;7.854;2022-08-04T00:35:24;23.40;90.30
2453;DHT22;1238;47.994;7.854;2022-08-04T00:37:58;23.30;90.50
2453;DHT22;1238;47.994;7.854;2022-08-04T00:40:47;23.20;90.80
2453;DHT22;1238;47.994;7.854;2022-08-04T00:52:10;22.90;91.80
2453;DHT22;1238;47.994;7.854;2022-08-04T01:07:08;22.80;92.10
2453;DHT22;1238;47.994;7.854;2022-08-04T01:16:06;23.10;91.70
2453;DHT22;1238;47.994;7.854;2022-08-04T01:25:02;23.10;91.80
2453;DHT22;1238;47.994;7.854;2022-08-04T01:30:56;23.20;91.70
2453;DHT22;1238;47.994;7.854;2022-08-04T01:33:29;23.20;91.70
2453;DHT22;1238;47.994;7.854;2022-08-04T01:36:23;23.20;91.50
2453;DHT22;1238;47.994;7.854;2022-08-04T01:38:56;23.20;91.50
2453;DHT22;1238;47.994;7.854;2022-08-04T01:41:29;23.90;91.70
2453;DHT22;1238;47.994;7.854;2022-08-04T01:44:04;23.20;91.50
2453;DHT22;1238;47.994;7.854;2022-08-04T01:46:39;23.30;91.20
2453;DHT22;1238;47.994;7.854;2022-08-04T01:49:12;23.70;91.30
2453;DHT22;1238;47.994;7.854;2022-08-04T01:51:45;24.20;91.60
2453;DHT22;1238;47.994;7.854;2022-08-04T01:54:20;23.30;91.30
2453;DHT22;1238;47.994;7.854;2022-08-04T01:56:54;23.30;91.40
2453;DHT22;1238;47.994;7.854;2022-08-04T01:59:29;23.40;91.30
2453;DHT22;1238;47.994;7.854;2022-08-04T02:02:03;23.30;91.50
2453;DHT22;1238;47.994;7.854;2022-08-04T02:04:36;23.10;91.70
2453;DHT22;1238;47.994;7.854;2022-08-04T02:10:29;23.20;91.60
2453;DHT22;1238;47.994;7.854;2022-08-04T02:13:41;23.20;91.60
2453;DHT22;1238;47.994;7.854;2022-08-04T02:16:30;23.20;91.60
2453;DHT22;1238;47.994;7.854;2022-08-04T02:22:43;23.20;91.60
2453;DHT22;1238;47.994;7.854;2022-08-04T02:25:24;23.20;91.70
2453;DHT22;1238;47.994;7.854;2022-08-04T02:28:15;23.10;91.90
2453;DHT22;1238;47.994;7.854;2022-08-04T02:36:44;23.00;92.10
2453;DHT22;1238;47.994;7.854;2022-08-04T02:39:20;22.90;92.40
2453;DHT22;1238;47.994;7.854;2022-08-04T02:41:54;22.70;92.60
2453;DHT22;1238;47.994;7.854;2022-08-04T02:44:27;23.60;92.90
2453;DHT22;1238;47.994;7.854;2022-08-04T02:47:01;22.70;92.80
2453;DHT22;1238;47.994;7.854;2022-08-04T02:49:36;22.70;92.90
2453;DHT22;1238;47.994;7.854;2022-08-04T02:52:13;22.70;92.90
2453;DHT22;1238;47.994;7.854;2022-08-04T02:54:52;22.60;93.10
2453;DHT22;1238;47.994;7.854;2022-08-04T02:57:28;22.60;93.20
2453;DHT22;1238;47.994;7.854;2022-08-04T03:00:12;22.60;93.10
2453;DHT22;1238;47.994;7.854;2022-08-04T03:09:10;22.90;92.70
2453;DHT22;1238;47.994;7.854;2022-08-04T03:15:23;22.70;93.00
2453;DHT22;1238;47.994;7.854;2022-08-04T03:41:17;22.30;94.30
2453;DHT22;1238;47.994;7.854;2022-08-04T03:47:33;22.30;94.40
2453;DHT22;1238;47.994;7.854;2022-08-04T03:50:23;22.40;94.40
2453;DHT22;1238;47.994;7.854;2022-08-04T03:59:17;22.30;94.40
2453;DHT22;1238;47.994;7.854;2022-08-04T04:05:23;22.30;94.50
2453;DHT22;1238;47.994;7.854;2022-08-04T04:17:45;22.40;94.60
2453;DHT22;1238;47.994;7.854;2022-08-04T04:23:42;22.50;94.50
2453;DHT22;1238;47.994;7.854;2022-08-04T04:26:36;22.50;94.40
2453;DHT22;1238;47.994;7.854;2022-08-04T04:35:04;22.40;94.80
2453;DHT22;1238;47.994;7.854;2022-08-04T04:40:55;22.40;95.00
2453;DHT22;1238;47.994;7.854;2022-08-04T04:44:01;22.40;95.10
2453;DHT22;1238;47.994;7.854;2022-08-04T04:49:50;22.40;95.00
2453;DHT22;1238;47.994;7.854;2022-08-04T04:52:44;22.30;95.30
2453;DHT22;1238;47.994;7.854;2022-08-04T04:55:26;22.20;95.40
2453;DHT22;1238;47.994;7.854;2022-08-04T04:58:00;22.20;95.50
2453;DHT22;1238;47.994;7.854;2022-08-04T05:10:02;22.40;95.20
2453;DHT22;1238;47.994;7.854;2022-08-04T05:12:52;22.40;95.10
2453;DHT22;1238;47.994;7.854;2022-08-04T05:15:53;22.40;95.30
2453;DHT22;1238;47.994;7.854;2022-08-04T05:18:29;22.40;95.20
2453;DHT22;1238;47.994;7.854;2022-08-04T05:21:55;22.50;95.20
2453;DHT22;1238;47.994;7.854;2022-08-04T05:24:05;22.50;95.30
2453;DHT22;1238;47.994;7.854;2022-08-04T05:26:47;22.50;95.40
2453;DHT22;1238;47.994;7.854;2022-08-04T05:29:32;22.50;95.40
2453;DHT22;1238;47.994;7.854;2022-08-04T05:32:11;22.50;95.50
2453;DHT22;1238;47.994;7.854;2022-08-04T05:34:54;22.60;95.30
2453;DHT22;1238;47.994;7.854;2022-08-04T05:37:29;22.80;95.10
2453;DHT22;1238;47.994;7.854;2022-08-04T05:40:07;22.90;95.30
2453;DHT22;1238;47.994;7.854;2022-08-04T05:42:40;23.00;95.20
2453;DHT22;1238;47.994;7.854;2022-08-04T05:45:12;23.00;95.00
2453;DHT22;1238;47.994;7.854;2022-08-04T05:47:45;23.00;95.00
2453;DHT22;1238;47.994;7.854;2022-08-04T05:50:18;23.00;94.90
2453;DHT22;1238;47.994;7.854;2022-08-04T05:52:52;23.10;95.00
2453;DHT22;1238;47.994;7.854;2022-08-04T05:55:32;23.30;95.10
2453;DHT22;1238;47.994;7.854;2022-08-04T05:58:28;23.30;94.80
2453;DHT22;1238;47.994;7.854;2022-08-04T06:01:02;23.40;94.80
2453;DHT22;1238;47.994;7.854;2022-08-04T06:03:35;23.40;94.70
2453;DHT22;1238;47.994;7.854;2022-08-04T06:06:10;24.70;95.30
2453;DHT22;1238;47.994;7.854;2022-08-04T06:08:42;23.30;94.90
2453;DHT22;1238;47.994;7.854;2022-08-04T06:11:14;23.40;94.90
2453;DHT22;1238;47.994;7.854;2022-08-04T06:13:55;23.50;94.80
2453;DHT22;1238;47.994;7.854;2022-08-04T06:16:39;23.80;94.90
2453;DHT22;1238;47.994;7.854;2022-08-04T06:19:14;23.70;94.50
2453;DHT22;1238;47.994;7.854;2022-08-04T06:22:10;23.80;94.50
2453;DHT22;1238;47.994;7.854;2022-08-04T06:24:44;24.20;94.50
2453;DHT22;1238;47.994;7.854;2022-08-04T06:27:22;24.20;94.40
2453;DHT22;1238;47.994;7.854;2022-08-04T06:29:57;24.00;94.50
2453;DHT22;1238;47.994;7.854;2022-08-04T06:32:30;24.10;94.50
2453;DHT22;1238;47.994;7.854;2022-08-04T06:35:18;24.10;94.20
2453;DHT22;1238;47.994;7.854;2022-08-04T06:37:52;24.40;94.00
2453;DHT22;1238;47.994;7.854;2022-08-04T06:40:32;24.20;94.10
2453;DHT22;1238;47.994;7.854;2022-08-04T06:43:07;24.40;94.30
2453;DHT22;1238;47.994;7.854;2022-08-04T06:45:41;24.30;94.40
2453;DHT22;1238;47.994;7.854;2022-08-04T06:48:16;24.70;94.70
2453;DHT22;1238;47.994;7.854;2022-08-04T06:50:49;24.30;94.90
2453;DHT22;1238;47.994;7.854;2022-08-04T06:53:42;24.50;94.90
2453;DHT22;1238;47.994;7.854;2022-08-04T06:56:17;25.00;95.00
2453;DHT22;1238;47.994;7.854;2022-08-04T06:58:51;24.60;94.60
2453;DHT22;1238;47.994;7.854;2022-08-04T07:01:29;24.70;94.40
2453;DHT22;1238;47.994;7.854;2022-08-04T07:04:03;25.10;94.20
2453;DHT22;1238;47.994;7.854;2022-08-04T07:06:36;25.70;93.10
2453;DHT22;1238;47.994;7.854;2022-08-04T07:09:09;27.30;91.30
2453;DHT22;1238;47.994;7.854;2022-08-04T07:11:41;28.80;87.60
2453;DHT22;1238;47.994;7.854;2022-08-04T07:14:16;28.70;86.00
2453;DHT22;1238;47.994;7.854;2022-08-04T07:16:49;27.90;87.30
2453;DHT22;1238;47.994;7.854;2022-08-04T07:19:21;27.40;88.50
2453;DHT22;1238;47.994;7.854;2022-08-04T07:21:54;27.10;89.90
2453;DHT22;1238;47.994;7.854;2022-08-04T07:24:47;27.10;90.00
2453;DHT22;1238;47.994;7.854;2022-08-04T07:27:20;27.80;88.10
2453;DHT22;1238;47.994;7.854;2022-08-04T07:30:13;28.30;87.10
2453;DHT22;1238;47.994;7.854;2022-08-04T07:32:46;29.40;84.50
2453;DHT22;1238;47.994;7.854;2022-08-04T07:35:19;30.30;81.60
2453;DHT22;1238;47.994;7.854;2022-08-04T07:38:13;31.10;80.00
2453;DHT22;1238;47.994;7.854;2022-08-04T07:40:47;31.60;78.90
2453;DHT22;1238;47.994;7.854;2022-08-04T07:43:19;31.90;78.00
2453;DHT22;1238;47.994;7.854;2022-08-04T07:45:52;32.00;76.30
2453;DHT22;1238;47.994;7.854;2022-08-04T07:48:24;31.70;76.20
2453;DHT22;1238;47.994;7.854;2022-08-04T07:50:57;32.30;75.00
2453;DHT22;1238;47.994;7.854;2022-08-04T07:53:30;32.30;75.00
2453;DHT22;1238;47.994;7.854;2022-08-04T07:56:25;33.00;73.70
2453;DHT22;1238;47.994;7.854;2022-08-04T07:58:58;33.20;72.80
2453;DHT22;1238;47.994;7.854;2022-08-04T08:01:31;32.70;73.20
2453;DHT22;1238;47.994;7.854;2022-08-04T08:04:05;33.10;70.80
2453;DHT22;1238;47.994;7.854;2022-08-04T08:06:41;34.00;70.20
2453;DHT22;1238;47.994;7.854;2022-08-04T08:09:17;33.30;70.90
2453;DHT22;1238;47.994;7.854;2022-08-04T08:11:51;33.50;71.10
2453;DHT22;1238;47.994;7.854;2022-08-04T08:14:44;33.10;71.20
2453;DHT22;1238;47.994;7.854;2022-08-04T08:17:17;33.30;71.30
2453;DHT22;1238;47.994;7.854;2022-08-04T08:19:49;33.00;71.30
2453;DHT22;1238;47.994;7.854;2022-08-04T08:22:22;32.70;70.60
2453;DHT22;1238;47.994;7.854;2022-08-04T08:24:54;33.20;70.30
2453;DHT22;1238;47.994;7.854;2022-08-04T08:27:27;34.30;68.60
2453;DHT22;1238;47.994;7.854;2022-08-04T08:29:59;36.90;65.40
2453;DHT22;1238;47.994;7.854;2022-08-04T08:32:31;35.40;65.00
2453;DHT22;1238;47.994;7.854;2022-08-04T08:35:04;34.60;67.00
2453;DHT22;1238;47.994;7.854;2022-08-04T08:37:42;35.10;66.40
2453;DHT22;1238;47.994;7.854;2022-08-04T08:40:31;34.70;66.30
2453;DHT22;1238;47.994;7.854;2022-08-04T08:46:52;35.60;65.00
2453;DHT22;1238;47.994;7.854;2022-08-04T08:52:51;34.90;64.60
2453;DHT22;1238;47.994;7.854;2022-08-04T09:07:05;38.10;72.10
2453;DHT22;1238;47.994;7.854;2022-08-04T09:12:56;37.80;60.80
2453;DHT22;1238;47.994;7.854;2022-08-04T09:15:40;38.80;59.40
2453;DHT22;1238;47.994;7.854;2022-08-04T09:18:31;37.70;59.50
2453;DHT22;1238;47.994;7.854;2022-08-04T09:24:13;36.90;60.10
2453;DHT22;1238;47.994;7.854;2022-08-04T09:28:06;36.30;60.20
2453;DHT22;1238;47.994;7.854;2022-08-04T09:30:20;36.60;59.30
2453;DHT22;1238;47.994;7.854;2022-08-04T09:35:57;37.50;59.50
2453;DHT22;1238;47.994;7.854;2022-08-04T09:38:51;37.50;58.70
2453;DHT22;1238;47.994;7.854;2022-08-04T09:53:02;36.20;60.20
2453;DHT22;1238;47.994;7.854;2022-08-04T09:55:49;36.50;59.70
2453;DHT22;1238;47.994;7.854;2022-08-04T09:58:56;37.60;56.90
2453;DHT22;1238;47.994;7.854;2022-08-04T10:01:32;37.90;57.50
2453;DHT22;1238;47.994;7.854;2022-08-04T10:04:09;38.90;55.10
2453;DHT22;1238;47.994;7.854;2022-08-04T10:15:33;37.80;55.90
2453;DHT22;1238;47.994;7.854;2022-08-04T10:21:23;38.30;54.30
2453;DHT22;1238;47.994;7.854;2022-08-04T10:26:52;38.00;53.20
2453;DHT22;1238;47.994;7.854;2022-08-04T10:29:46;36.80;52.50
2453;DHT22;1238;47.994;7.854;2022-08-04T10:32:28;37.30;52.60
2453;DHT22;1238;47.994;7.854;2022-08-04T10:35:18;38.00;60.90
2453;DHT22;1238;47.994;7.854;2022-08-04T10:40:42;37.30;52.20
2453;DHT22;1238;47.994;7.854;2022-08-04T10:49:01;37.10;52.90
2453;DHT22;1238;47.994;7.854;2022-08-04T10:51:46;38.30;51.90
2453;DHT22;1238;47.994;7.854;2022-08-04T10:54:31;38.80;51.20
2453;DHT22;1238;47.994;7.854;2022-08-04T10:57:22;38.20;51.20
2453;DHT22;1238;47.994;7.854;2022-08-04T11:00:11;37.30;51.70
2453;DHT22;1238;47.994;7.854;2022-08-04T11:05:45;38.50;51.10
2453;DHT22;1238;47.994;7.854;2022-08-04T11:08:28;39.10;50.80
2453;DHT22;1238;47.994;7.854;2022-08-04T11:11:30;39.20;50.20
2453;DHT22;1238;47.994;7.854;2022-08-04T11:14:28;39.20;49.90
2453;DHT22;1238;47.994;7.854;2022-08-04T11:17:31;38.60;49.50
2453;DHT22;1238;47.994;7.854;2022-08-04T11:20:22;37.80;49.60
2453;DHT22;1238;47.994;7.854;2022-08-04T11:23:17;38.00;49.50
2453;DHT22;1238;47.994;7.854;2022-08-04T11:25:59;37.60;49.50
2453;DHT22;1238;47.994;7.854;2022-08-04T11:28:49;38.00;49.40
2453;DHT22;1238;47.994;7.854;2022-08-04T11:31:39;37.70;48.80
2453;DHT22;1238;47.994;7.854;2022-08-04T11:34:19;38.00;49.70
2453;DHT22;1238;47.994;7.854;2022-08-04T11:37:05;38.30;49.30
2453;DHT22;1238;47.994;7.854;2022-08-04T11:39:52;38.20;48.70
2453;DHT22;1238;47.994;7.854;2022-08-04T11:42:35;38.30;49.00
2453;DHT22;1238;47.994;7.854;2022-08-04T11:45:33;38.30;49.00
2453;DHT22;1238;47.994;7.854;2022-08-04T11:48:16;38.10;48.90
2453;DHT22;1238;47.994;7.854;2022-08-04T11:50:52;38.60;48.70
2453;DHT22;1238;47.994;7.854;2022-08-04T11:53:27;38.00;49.10
2453;DHT22;1238;47.994;7.854;2022-08-04T11:56:11;37.90;48.40
2453;DHT22;1238;47.994;7.854;2022-08-04T11:59:05;37.50;49.10
2453;DHT22;1238;47.994;7.854;2022-08-04T12:01:46;38.20;49.00
2453;DHT22;1238;47.994;7.854;2022-08-04T12:04:49;37.50;49.40
2453;DHT22;1238;47.994;7.854;2022-08-04T12:16:26;37.40;48.40
2453;DHT22;1238;47.994;7.854;2022-08-04T12:19:03;37.40;49.30
2453;DHT22;1238;47.994;7.854;2022-08-04T12:21:58;37.60;48.80
2453;DHT22;1238;47.994;7.854;2022-08-04T12:24:39;37.60;48.60
2453;DHT22;1238;47.994;7.854;2022-08-04T12:27:14;37.20;48.90
2453;DHT22;1238;47.994;7.854;2022-08-04T12:29:47;37.50;49.00
2453;DHT22;1238;47.994;7.854;2022-08-04T12:32:47;37.60;49.00
2453;DHT22;1238;47.994;7.854;2022-08-04T12:38:43;38.00;48.60
2453;DHT22;1238;47.994;7.854;2022-08-04T12:41:22;37.90;48.10
2453;DHT22;1238;47.994;7.854;2022-08-04T12:44:09;37.70;48.30
2453;DHT22;1238;47.994;7.854;2022-08-04T12:47:04;37.90;48.50
2453;DHT22;1238;47.994;7.854;2022-08-04T12:50:02;38.30;48.30
2453;DHT22;1238;47.994;7.854;2022-08-04T12:52:43;37.90;47.80
2453;DHT22;1238;47.994;7.854;2022-08-04T12:55:35;37.70;48.40
2453;DHT22;1238;47.994;7.854;2022-08-04T12:58:16;37.50;47.90
2453;DHT22;1238;47.994;7.854;2022-08-04T13:01:21;37.50;48.20
2453;DHT22;1238;47.994;7.854;2022-08-04T13:04:20;38.60;48.00
2453;DHT22;1238;47.994;7.854;2022-08-04T13:07:08;38.10;48.10
2453;DHT22;1238;47.994;7.854;2022-08-04T13:09:41;38.40;48.20
2453;DHT22;1238;47.994;7.854;2022-08-04T13:12:18;38.00;48.20
2453;DHT22;1238;47.994;7.854;2022-08-04T13:15:10;38.40;48.40
2453;DHT22;1238;47.994;7.854;2022-08-04T13:17:59;37.70;48.20
2453;DHT22;1238;47.994;7.854;2022-08-04T13:20:35;38.00;48.10
2453;DHT22;1238;47.994;7.854;2022-08-04T13:23:10;38.10;48.20
2453;DHT22;1238;47.994;7.854;2022-08-04T13:25:48;38.00;47.80
2453;DHT22;1238;47.994;7.854;2022-08-04T13:28:44;38.20;47.90
2453;DHT22;1238;47.994;7.854;2022-08-04T13:31:22;37.80;47.20
2453;DHT22;1238;47.994;7.854;2022-08-04T13:34:03;38.00;47.70
2453;DHT22;1238;47.994;7.854;2022-08-04T13:36:38;37.90;48.10
2453;DHT22;1238;47.994;7.854;2022-08-04T13:39:16;37.40;47.90
2453;DHT22;1238;47.994;7.854;2022-08-04T13:41:52;37.60;47.50
2453;DHT22;1238;47.994;7.854;2022-08-04T13:44:36;38.10;47.70
2453;DHT22;1238;47.994;7.854;2022-08-04T13:47:18;38.40;47.00
2453;DHT22;1238;47.994;7.854;2022-08-04T13:50:20;38.10;47.10
2453;DHT22;1238;47.994;7.854;2022-08-04T13:53:00;38.50;47.00
2453;DHT22;1238;47.994;7.854;2022-08-04T13:55:35;38.60;46.70
2453;DHT22;1238;47.994;7.854;2022-08-04T13:58:17;38.00;46.70
2453;DHT22;1238;47.994;7.854;2022-08-04T14:03:35;38.30;46.70
2453;DHT22;1238;47.994;7.854;2022-08-04T14:06:29;38.00;46.60
2453;DHT22;1238;47.994;7.854;2022-08-04T14:09:18;38.30;46.60
2453;DHT22;1238;47.994;7.854;2022-08-04T14:11:53;38.20;46.20
2453;DHT22;1238;47.994;7.854;2022-08-04T14:14:51;37.90;46.30
2453;DHT22;1238;47.994;7.854;2022-08-04T14:17:25;37.80;46.80
2453;DHT22;1238;47.994;7.854;2022-08-04T14:20:01;37.60;47.00
2453;DHT22;1238;47.994;7.854;2022-08-04T14:22:35;38.10;47.10
2453;DHT22;1238;47.994;7.854;2022-08-04T14:25:09;38.30;47.20
2453;DHT22;1238;47.994;7.854;2022-08-04T14:27:55;38.50;46.80
2453;DHT22;1238;47.994;7.854;2022-08-04T14:33:11;37.80;46.70
2453;DHT22;1238;47.994;7.854;2022-08-04T14:36:04;37.70;47.10
2453;DHT22;1238;47.994;7.854;2022-08-04T14:38:51;38.40;47.20
2453;DHT22;1238;47.994;7.854;2022-08-04T14:41:44;38.40;47.10
2453;DHT22;1238;47.994;7.854;2022-08-04T14:44:16;38.70;47.00
2453;DHT22;1238;47.994;7.854;2022-08-04T14:46:53;38.40;46.90
2453;DHT22;1238;47.994;7.854;2022-08-04T14:49:26;38.30;47.20
2453;DHT22;1238;47.994;7.854;2022-08-04T14:51:59;38.20;47.70
2453;DHT22;1238;47.994;7.854;2022-08-04T14:54:33;38.50;50.70
2453;DHT22;1238;47.994;7.854;2022-08-04T14:57:07;38.20;48.90
2453;DHT22;1238;47.994;7.854;2022-08-04T14:59:45;37.80;46.50
2453;DHT22;1238;47.994;7.854;2022-08-04T15:02:33;37.90;48.30
2453;DHT22;1238;47.994;7.854;2022-08-04T15:05:07;38.00;64.90
2453;DHT22;1238;47.994;7.854;2022-08-04T15:08:08;37.80;71.20
2453;DHT22;1238;47.994;7.854;2022-08-04T15:10:42;37.90;70.70
2453;DHT22;1238;47.994;7.854;2022-08-04T15:13:15;37.50;47.20
2453;DHT22;1238;47.994;7.854;2022-08-04T15:15:47;37.70;47.30
2453;DHT22;1238;47.994;7.854;2022-08-04T15:18:40;37.90;71.80
2453;DHT22;1238;47.994;7.854;2022-08-04T15:21:13;38.10;72.40
2453;DHT22;1238;47.994;7.854;2022-08-04T15:23:46;38.10;72.60
2453;DHT22;1238;47.994;7.854;2022-08-04T15:29:13;38.20;72.30
2453;DHT22;1238;47.994;7.854;2022-08-04T15:31:48;37.80;72.60
2453;DHT22;1238;47.994;7.854;2022-08-04T15:34:46;37.80;72.50
2453;DHT22;1238;47.994;7.854;2022-08-04T15:37:45;37.70;72.70
2453;DHT22;1238;47.994;7.854;2022-08-04T16:13:11;37.20;73.40
2453;DHT22;1238;47.994;7.854;2022-08-04T16:37:35;37.20;65.90
2453;DHT22;1238;47.994;7.854;2022-08-04T16:40:32;37.50;66.80
2453;DHT22;1238;47.994;7.854;2022-08-04T16:46:01;37.10;65.40
2453;DHT22;1238;47.994;7.854;2022-08-04T16:48:35;37.10;65.00
2453;DHT22;1238;47.994;7.854;2022-08-04T16:53:46;36.70;64.80
2453;DHT22;1238;47.994;7.854;2022-08-04T17:09:48;36.30;64.60
2453;DHT22;1238;47.994;7.854;2022-08-04T17:12:27;36.20;65.60
2453;DHT22;1238;47.994;7.854;2022-08-04T17:17:35;36.30;70.20
2453;DHT22;1238;47.994;7.854;2022-08-04T17:29:12;39.30;49.20
2453;DHT22;1238;47.994;7.854;2022-08-04T17:31:51;36.40;47.80
2453;DHT22;1238;47.994;7.854;2022-08-04T17:34:24;36.30;47.60
2453;DHT22;1238;47.994;7.854;2022-08-04T17:37:01;36.30;47.70
2453;DHT22;1238;47.994;7.854;2022-08-04T17:40:10;36.30;47.80
2453;DHT22;1238;47.994;7.854;2022-08-04T17:42:44;36.20;47.60
2453;DHT22;1238;47.994;7.854;2022-08-04T17:45:16;36.10;47.60
2453;DHT22;1238;47.994;7.854;2022-08-04T17:48:19;36.10;48.10
2453;DHT22;1238;47.994;7.854;2022-08-04T17:51:14;36.00;48.10
2453;DHT22;1238;47.994;7.854;2022-08-04T17:53:54;36.00;48.40
2453;DHT22;1238;47.994;7.854;2022-08-04T17:59:26;35.70;49.20
2453;DHT22;1238;47.994;7.854;2022-08-04T18:02:27;35.70;51.60
2453;DHT22;1238;47.994;7.854;2022-08-04T18:05:06;35.50;57.40
2453;DHT22;1238;47.994;7.854;2022-08-04T18:07:43;36.10;51.20
2453;DHT22;1238;47.994;7.854;2022-08-04T18:10:37;35.30;51.70
2453;DHT22;1238;47.994;7.854;2022-08-04T18:16:14;34.30;51.20
2453;DHT22;1238;47.994;7.854;2022-08-04T18:19:10;34.80;50.60
2453;DHT22;1238;47.994;7.854;2022-08-04T18:21:43;34.70;50.70
2453;DHT22;1238;47.994;7.854;2022-08-04T18:24:34;34.60;52.50
2453;DHT22;1238;47.994;7.854;2022-08-04T18:27:29;34.20;52.50
2453;DHT22;1238;47.994;7.854;2022-08-04T18:30:02;34.40;51.00
2453;DHT22;1238;47.994;7.854;2022-08-04T18:32:55;34.10;51.90
2453;DHT22;1238;47.994;7.854;2022-08-04T18:35:48;33.80;52.00
2453;DHT22;1238;47.994;7.854;2022-08-04T18:38:40;33.50;52.80
2453;DHT22;1238;47.994;7.854;2022-08-04T18:41:29;33.20;53.50
2453;DHT22;1238;47.994;7.854;2022-08-04T18:44:22;33.10;53.80
2453;DHT22;1238;47.994;7.854;2022-08-04T18:47:00;32.80;53.40
2453;DHT22;1238;47.994;7.854;2022-08-04T18:49:53;32.90;54.30
2453;DHT22;1238;47.994;7.854;2022-08-04T18:52:45;32.70;54.40
2453;DHT22;1238;47.994;7.854;2022-08-04T18:55:23;34.70;56.10
2453;DHT22;1238;47.994;7.854;2022-08-04T18:58:16;34.00;56.40
2453;DHT22;1238;47.994;7.854;2022-08-04T19:00:59;32.70;56.00
2453;DHT22;1238;47.994;7.854;2022-08-04T19:03:32;34.70;57.50
2453;DHT22;1238;47.994;7.854;2022-08-04T19:06:07;31.90;56.30
2453;DHT22;1238;47.994;7.854;2022-08-04T19:08:40;31.80;56.60
2453;DHT22;1238;47.994;7.854;2022-08-04T19:11:13;31.70;56.90
2453;DHT22;1238;47.994;7.854;2022-08-04T19:14:05;31.50;57.20
2453;DHT22;1238;47.994;7.854;2022-08-04T19:16:44;31.40;57.60
2453;DHT22;1238;47.994;7.854;2022-08-04T19:19:18;31.30;58.10
2453;DHT22;1238;47.994;7.854;2022-08-04T19:21:51;32.60;59.10
2453;DHT22;1238;47.994;7.854;2022-08-04T19:24:32;31.10;58.20
2453;DHT22;1238;47.994;7.854;2022-08-04T19:27:06;31.10;58.10
2453;DHT22;1238;47.994;7.854;2022-08-04T19:29:40;31.10;58.40
2453;DHT22;1238;47.994;7.854;2022-08-04T19:32:14;30.90;58.50
2453;DHT22;1238;47.994;7.854;2022-08-04T19:34:47;31.00;58.60
2453;DHT22;1238;47.994;7.854;2022-08-04T19:37:19;30.90;58.90
2453;DHT22;1238;47.994;7.854;2022-08-04T19:40:12;30.90;59.00
2453;DHT22;1238;47.994;7.854;2022-08-04T19:42:46;30.60;58.80
2453;DHT22;1238;47.994;7.854;2022-08-04T19:45:22;30.60;59.40
2453;DHT22;1238;47.994;7.854;2022-08-04T19:48:14;30.60;59.70
2453;DHT22;1238;47.994;7.854;2022-08-04T19:50:50;30.60;59.70
2453;DHT22;1238;47.994;7.854;2022-08-04T19:53:22;30.60;59.90
2453;DHT22;1238;47.994;7.854;2022-08-04T19:56:08;30.40;60.00
2453;DHT22;1238;47.994;7.854;2022-08-04T19:58:41;30.40;60.30
2453;DHT22;1238;47.994;7.854;2022-08-04T20:01:18;30.30;60.30
2453;DHT22;1238;47.994;7.854;2022-08-04T20:04:09;30.30;60.50
2453;DHT22;1238;47.994;7.854;2022-08-04T20:06:43;30.30;60.80
2453;DHT22;1238;47.994;7.854;2022-08-04T20:09:15;30.20;60.60
2453;DHT22;1238;47.994;7.854;2022-08-04T20:11:57;30.20;60.10
2453;DHT22;1238;47.994;7.854;2022-08-04T20:14:31;30.20;60.30
2453;DHT22;1238;47.994;7.854;2022-08-04T20:17:24;30.30;60.50
2453;DHT22;1238;47.994;7.854;2022-08-04T20:20:17;30.10;60.80
2453;DHT22;1238;47.994;7.854;2022-08-04T20:22:49;30.00;61.20
2453;DHT22;1238;47.994;7.854;2022-08-04T20:25:24;29.70;61.70
2453;DHT22;1238;47.994;7.854;2022-08-04T20:28:08;29.50;62.50
2453;DHT22;1238;47.994;7.854;2022-08-04T20:31:01;29.20;62.90
2453;DHT22;1238;47.994;7.854;2022-08-04T20:33:34;29.40;63.10
2453;DHT22;1238;47.994;7.854;2022-08-04T20:36:07;29.70;61.40
2453;DHT22;1238;47.994;7.854;2022-08-04T20:38:40;29.70;62.10
2453;DHT22;1238;47.994;7.854;2022-08-04T20:41:13;30.10;61.60
2453;DHT22;1238;47.994;7.854;2022-08-04T20:43:49;29.50;61.90
2453;DHT22;1238;47.994;7.854;2022-08-04T20:46:26;29.60;62.20
2453;DHT22;1238;47.994;7.854;2022-08-04T20:49:02;29.40;62.30
2453;DHT22;1238;47.994;7.854;2022-08-04T20:51:38;29.30;63.00
2453;DHT22;1238;47.994;7.854;2022-08-04T20:54:11;29.20;63.40
2453;DHT22;1238;47.994;7.854;2022-08-04T20:56:47;29.20;63.70
2453;DHT22;1238;47.994;7.854;2022-08-04T20:59:21;29.10;63.80
2453;DHT22;1238;47.994;7.854;2022-08-04T21:01:55;29.10;63.90
2453;DHT22;1238;47.994;7.854;2022-08-04T21:04:29;29.10;63.50
2453;DHT22;1238;47.994;7.854;2022-08-04T21:07:04;29.00;63.60
2453;DHT22;1238;47.994;7.854;2022-08-04T21:09:39;28.90;63.90
2453;DHT22;1238;47.994;7.854;2022-08-04T21:12:21;28.90;63.80
2453;DHT22;1238;47.994;7.854;2022-08-04T21:14:59;28.80;64.10
2453;DHT22;1238;47.994;7.854;2022-08-04T21:17:50;29.30;64.30
2453;DHT22;1238;47.994;7.854;2022-08-04T21:20:35;28.80;63.70
2453;DHT22;1238;47.994;7.854;2022-08-04T21:23:13;29.00;64.10
2453;DHT22;1238;47.994;7.854;2022-08-04T21:25:54;29.10;64.00
2453;DHT22;1238;47.994;7.854;2022-08-04T21:28:30;28.90;63.80
2453;DHT22;1238;47.994;7.854;2022-08-04T21:31:04;28.90;63.70
2453;DHT22;1238;47.994;7.854;2022-08-04T21:33:52;28.80;63.10
2453;DHT22;1238;47.994;7.854;2022-08-04T21:36:24;29.20;63.40
2453;DHT22;1238;47.994;7.854;2022-08-04T21:38:58;28.90;63.30
2453;DHT22;1238;47.994;7.854;2022-08-04T21:41:31;30.20;64.30
2453;DHT22;1238;47.994;7.854;2022-08-04T21:44:04;28.90;63.30
2453;DHT22;1238;47.994;7.854;2022-08-04T21:46:38;28.70;63.20
2453;DHT22;1238;47.994;7.854;2022-08-04T21:49:15;28.80;63.80
2453;DHT22;1238;47.994;7.854;2022-08-04T21:51:50;28.50;64.10
2453;DHT22;1238;47.994;7.854;2022-08-04T21:54:33;28.40;64.30
2453;DHT22;1238;47.994;7.854;2022-08-04T21:57:08;28.50;64.10
2453;DHT22;1238;47.994;7.854;2022-08-04T21:59:40;28.50;63.90
2453;DHT22;1238;47.994;7.854;2022-08-04T22:02:16;28.60;63.60
2453;DHT22;1238;47.994;7.854;2022-08-04T22:04:49;28.40;63.80
2453;DHT22;1238;47.994;7.854;2022-08-04T22:07:23;28.50;64.40
2453;DHT22;1238;47.994;7.854;2022-08-04T22:10:16;28.20;63.60
2453;DHT22;1238;47.994;7.854;2022-08-04T22:13:04;28.20;64.40
2453;DHT22;1238;47.994;7.854;2022-08-04T22:15:38;28.20;63.80
2453;DHT22;1238;47.994;7.854;2022-08-04T22:18:30;28.10;64.80
2453;DHT22;1238;47.994;7.854;2022-08-04T22:21:07;28.00;65.40
2453;DHT22;1238;47.994;7.854;2022-08-04T22:23:43;28.20;64.70
2453;DHT22;1238;47.994;7.854;2022-08-04T22:26:22;27.70;66.60
2453;DHT22;1238;47.994;7.854;2022-08-04T22:28:57;27.50;67.80
2453;DHT22;1238;47.994;7.854;2022-08-04T22:31:30;27.30;68.20
2453;DHT22;1238;47.994;7.854;2022-08-04T22:34:22;27.10;69.20
2453;DHT22;1238;47.994;7.854;2022-08-04T22:36:55;26.90;69.30